sensor_id;sensor_type;location;lat;lon;timestamp;P1;durP1;ratioP1;P2;durP2;ratioP2
70010;SDS011;59543;37.950;-122.338;2023-09-19T00:01:33;7.40;;;2.60;;
70010;SDS011;59543;37.950;-122.338;2023-09-19T00:03:59;8.75;;;2.50;;
70010;SDS011;59543;37.950;-122.338;2023-09-19T00:06:29;11.15;;;2.40;;
70010;SDS011;59543;37.950;-122.338;2023-09-19T00:08:57;5.55;;;2.00;;
70010;SDS011;59543;37.950;-122.338;2023-09-19T00:11:28;6.18;;;2.50;;
70010;SDS011;59543;37.950;-122.338;2023-09-19T00:13:54;5.90;;;2.45;;
70010;SDS011;59543;37.950;-122.338;2023-09-19T00:16:20;5.28;;;2.00;;
70010;SDS011;59543;37.950;-122.338;2023-09-19T00:18:46;5.50;;;2.10;;
70010;SDS011;59543;37.950;-122.338;2023-09-19T00:21:14;9.45;;;2.40;;
70010;SDS011;59543;37.950;-122.338;2023-09-19T00:23:40;4.90;;;1.80;;
70010;SDS011;59543;37.950;-122.338;2023-09-19T00:26:07;8.45;;;2.03;;
70010;SDS011;59543;37.950;-122.338;2023-09-19T00:28:33;3.88;;;2.22;;
70010;SDS011;59543;37.950;-122.338;2023-09-19T00:31:00;7.57;;;2.50;;
70010;SDS011;59543;37.950;-122.338;2023-09-19T00:33:27;8.77;;;2.28;;
70010;SDS011;59543;37.950;-122.338;2023-09-19T00:35:55;6.40;;;2.78;;
70010;SDS011;59543;37.950;-122.338;2023-09-19T00:38:23;6.75;;;2.38;;
70010;SDS011;59543;37.950;-122.338;2023-09-19T00:40:52;10.20;;;2.50;;
70010;SDS011;59543;37.950;-122.338;2023-09-19T00:43:22;7.82;;;2.22;;
70010;SDS011;59543;37.950;-122.338;2023-09-19T00:45:51;6.10;;;2.33;;
70010;SDS011;59543;37.950;-122.338;2023-09-19T00:48:20;8.13;;;2.38;;
70010;SDS011;59543;37.950;-122.338;2023-09-19T00:50:48;7.10;;;2.17;;
70010;SDS011;59543;37.950;-122.338;2023-09-19T00:53:17;6.10;;;2.13;;
70010;SDS011;59543;37.950;-122.338;2023-09-19T00:55:46;3.92;;;1.85;;
70010;SDS011;59543;37.950;-122.338;2023-09-19T00:58:13;4.55;;;2.15;;
70010;SDS011;59543;37.950;-122.338;2023-09-19T01:00:41;5.72;;;2.30;;
70010;SDS011;59543;37.950;-122.338;2023-09-19T01:03:10;15.68;;;2.70;;
70010;SDS011;59543;37.950;-122.338;2023-09-19T01:05:38;6.60;;;2.08;;
70010;SDS011;59543;37.950;-122.338;2023-09-19T01:08:05;6.07;;;2.80;;
70010;SDS011;59543;37.950;-122.338;2023-09-19T01:10:32;5.85;;;2.20;;
70010;SDS011;59543;37.950;-122.338;2023-09-19T01:32:04;5.90;;;2.45;;
70010;SDS011;59543;37.950;-122.338;2023-09-19T01:37:19;5.13;;;2.30;;
70010;SDS011;59543;37.950;-122.338;2023-09-19T01:40:09;4.72;;;2.25;;
70010;SDS011;59543;37.950;-122.338;2023-09-19T01:42:45;6.35;;;2.67;;
70010;SDS011;59543;37.950;-122.338;2023-09-19T01:45:23;6.97;;;2.75;;
70010;SDS011;59543;37.950;-122.338;2023-09-19T01:47:52;7.32;;;2.90;;
70010;SDS011;59543;37.950;-122.338;2023-09-19T01:55:36;5.43;;;2.58;;
70010;SDS011;59543;37.950;-122.338;2023-09-19T01:58:42;9.05;;;2.70;;
70010;SDS011;59543;37.950;-122.338;2023-09-19T02:01:08;9.75;;;2.90;;
70010;SDS011;59543;37.950;-122.338;2023-09-19T02:03:39;7.20;;;2.90;;
70010;SDS011;59543;37.950;-122.338;2023-09-19T02:06:06;7.05;;;3.30;;
70010;SDS011;59543;37.950;-122.338;2023-09-19T02:08:36;11.80;;;3.55;;
70010;SDS011;59543;37.950;-122.338;2023-09-19T02:11:03;21.02;;;4.10;;
70010;SDS011;59543;37.950;-122.338;2023-09-19T02:13:29;13.40;;;3.97;;
70010;SDS011;59543;37.950;-122.338;2023-09-19T02:15:57;14.82;;;3.95;;
70010;SDS011;59543;37.950;-122.338;2023-09-19T02:18:23;13.13;;;3.38;;
70010;SDS011;59543;37.950;-122.338;2023-09-19T02:20:49;9.10;;;3.55;;
70010;SDS011;59543;37.950;-122.338;2023-09-19T02:23:16;5.82;;;2.80;;
70010;SDS011;59543;37.950;-122.338;2023-09-19T02:25:43;6.63;;;2.92;;
70010;SDS011;59543;37.950;-122.338;2023-09-19T02:28:17;4.75;;;2.30;;
70010;SDS011;59543;37.950;-122.338;2023-09-19T02:30:43;6.97;;;2.78;;
70010;SDS011;59543;37.950;-122.338;2023-09-19T02:33:13;5.82;;;2.70;;
70010;SDS011;59543;37.950;-122.338;2023-09-19T02:35:39;3.92;;;2.90;;
70010;SDS011;59543;37.950;-122.338;2023-09-19T02:38:05;4.32;;;2.33;;
70010;SDS011;59543;37.950;-122.338;2023-09-19T02:40:37;9.52;;;3.22;;
70010;SDS011;59543;37.950;-122.338;2023-09-19T02:43:03;5.72;;;2.70;;
70010;SDS011;59543;37.950;-122.338;2023-09-19T02:45:30;5.88;;;3.10;;
70010;SDS011;59543;37.950;-122.338;2023-09-19T02:47:57;8.20;;;3.10;;
70010;SDS011;59543;37.950;-122.338;2023-09-19T02:50:23;5.07;;;3.28;;
70010;SDS011;59543;37.950;-122.338;2023-09-19T02:52:50;7.70;;;3.47;;
70010;SDS011;59543;37.950;-122.338;2023-09-19T02:55:17;7.90;;;3.60;;
70010;SDS011;59543;37.950;-122.338;2023-09-19T02:57:48;8.70;;;3.70;;
70010;SDS011;59543;37.950;-122.338;2023-09-19T03:00:16;5.82;;;3.53;;
70010;SDS011;59543;37.950;-122.338;2023-09-19T03:02:46;7.72;;;3.60;;
70010;SDS011;59543;37.950;-122.338;2023-09-19T03:05:17;4.18;;;3.50;;
70010;SDS011;59543;37.950;-122.338;2023-09-19T03:07:43;6.95;;;3.78;;
70010;SDS011;59543;37.950;-122.338;2023-09-19T03:10:11;4.35;;;3.30;;
70010;SDS011;59543;37.950;-122.338;2023-09-19T03:12:37;6.32;;;3.65;;
70010;SDS011;59543;37.950;-122.338;2023-09-19T03:15:05;5.22;;;3.85;;
70010;SDS011;59543;37.950;-122.338;2023-09-19T03:17:34;8.35;;;4.30;;
70010;SDS011;59543;37.950;-122.338;2023-09-19T03:20:02;7.55;;;4.03;;
70010;SDS011;59543;37.950;-122.338;2023-09-19T03:22:34;7.43;;;3.85;;
70010;SDS011;59543;37.950;-122.338;2023-09-19T03:25:00;6.00;;;3.70;;
70010;SDS011;59543;37.950;-122.338;2023-09-19T03:27:26;5.63;;;3.90;;
70010;SDS011;59543;37.950;-122.338;2023-09-19T03:29:53;7.07;;;4.28;;
70010;SDS011;59543;37.950;-122.338;2023-09-19T03:32:19;9.15;;;4.80;;
70010;SDS011;59543;37.950;-122.338;2023-09-19T03:34:45;7.05;;;4.25;;
70010;SDS011;59543;37.950;-122.338;2023-09-19T03:37:13;4.88;;;3.40;;
70010;SDS011;59543;37.950;-122.338;2023-09-19T03:39:40;6.43;;;3.80;;
70010;SDS011;59543;37.950;-122.338;2023-09-19T03:42:06;6.75;;;5.00;;
70010;SDS011;59543;37.950;-122.338;2023-09-19T03:44:32;8.20;;;4.53;;
70010;SDS011;59543;37.950;-122.338;2023-09-19T03:46:59;6.75;;;4.47;;
70010;SDS011;59543;37.950;-122.338;2023-09-19T03:49:25;7.07;;;4.18;;
70010;SDS011;59543;37.950;-122.338;2023-09-19T03:51:51;7.60;;;4.63;;
70010;SDS011;59543;37.950;-122.338;2023-09-19T03:54:18;7.55;;;4.35;;
70010;SDS011;59543;37.950;-122.338;2023-09-19T03:56:44;7.90;;;4.55;;
70010;SDS011;59543;37.950;-122.338;2023-09-19T03:59:11;7.43;;;3.88;;
70010;SDS011;59543;37.950;-122.338;2023-09-19T04:01:37;7.38;;;4.80;;
70010;SDS011;59543;37.950;-122.338;2023-09-19T04:04:04;8.52;;;4.40;;
70010;SDS011;59543;37.950;-122.338;2023-09-19T04:06:34;6.38;;;4.70;;
70010;SDS011;59543;37.950;-122.338;2023-09-19T04:09:00;7.53;;;4.40;;
70010;SDS011;59543;37.950;-122.338;2023-09-19T04:11:32;6.13;;;3.90;;
70010;SDS011;59543;37.950;-122.338;2023-09-19T04:13:58;5.70;;;4.10;;
70010;SDS011;59543;37.950;-122.338;2023-09-19T04:16:28;10.27;;;4.80;;
70010;SDS011;59543;37.950;-122.338;2023-09-19T04:18:55;7.35;;;4.53;;
70010;SDS011;59543;37.950;-122.338;2023-09-19T04:21:21;7.28;;;4.60;;
70010;SDS011;59543;37.950;-122.338;2023-09-19T04:23:47;6.55;;;5.13;;
70010;SDS011;59543;37.950;-122.338;2023-09-19T04:26:13;8.57;;;4.93;;
70010;SDS011;59543;37.950;-122.338;2023-09-19T04:28:42;7.22;;;4.18;;
70010;SDS011;59543;37.950;-122.338;2023-09-19T04:31:09;6.47;;;4.32;;
70010;SDS011;59543;37.950;-122.338;2023-09-19T04:33:37;7.03;;;4.38;;
70010;SDS011;59543;37.950;-122.338;2023-09-19T04:36:03;9.40;;;4.68;;
70010;SDS011;59543;37.950;-122.338;2023-09-19T04:38:33;10.25;;;5.13;;
70010;SDS011;59543;37.950;-122.338;2023-09-19T04:40:59;7.05;;;4.50;;
70010;SDS011;59543;37.950;-122.338;2023-09-19T04:43:26;11.13;;;4.57;;
70010;SDS011;59543;37.950;-122.338;2023-09-19T04:45:53;5.80;;;4.28;;
70010;SDS011;59543;37.950;-122.338;2023-09-19T04:48:21;8.68;;;4.88;;
70010;SDS011;59543;37.950;-122.338;2023-09-19T04:50:51;7.00;;;4.47;;
70010;SDS011;59543;37.950;-122.338;2023-09-19T04:53:18;8.23;;;4.70;;
70010;SDS011;59543;37.950;-122.338;2023-09-19T04:55:49;6.90;;;4.70;;
70010;SDS011;59543;37.950;-122.338;2023-09-19T04:58:18;8.10;;;4.70;;
70010;SDS011;59543;37.950;-122.338;2023-09-19T05:00:45;6.53;;;4.38;;
70010;SDS011;59543;37.950;-122.338;2023-09-19T05:03:11;12.18;;;4.55;;
70010;SDS011;59543;37.950;-122.338;2023-09-19T05:05:38;8.02;;;5.25;;
70010;SDS011;59543;37.950;-122.338;2023-09-19T05:08:07;7.90;;;4.78;;
70010;SDS011;59543;37.950;-122.338;2023-09-19T05:10:35;8.60;;;4.93;;
70010;SDS011;59543;37.950;-122.338;2023-09-19T05:13:04;11.35;;;5.57;;
70010;SDS011;59543;37.950;-122.338;2023-09-19T05:15:32;15.52;;;6.75;;
70010;SDS011;59543;37.950;-122.338;2023-09-19T05:17:59;13.20;;;6.40;;
70010;SDS011;59543;37.950;-122.338;2023-09-19T05:20:25;12.00;;;6.30;;
70010;SDS011;59543;37.950;-122.338;2023-09-19T05:23:03;16.25;;;6.68;;
70010;SDS011;59543;37.950;-122.338;2023-09-19T05:25:37;13.10;;;6.72;;
70010;SDS011;59543;37.950;-122.338;2023-09-19T05:28:10;13.88;;;6.32;;
70010;SDS011;59543;37.950;-122.338;2023-09-19T05:30:40;12.37;;;6.03;;
70010;SDS011;59543;37.950;-122.338;2023-09-19T05:33:09;15.50;;;6.65;;
70010;SDS011;59543;37.950;-122.338;2023-09-19T05:35:36;12.25;;;6.32;;
70010;SDS011;59543;37.950;-122.338;2023-09-19T05:38:05;13.48;;;7.05;;
70010;SDS011;59543;37.950;-122.338;2023-09-19T05:40:34;13.52;;;7.10;;
70010;SDS011;59543;37.950;-122.338;2023-09-19T05:43:01;13.43;;;6.90;;
70010;SDS011;59543;37.950;-122.338;2023-09-19T05:45:31;11.05;;;6.80;;
70010;SDS011;59543;37.950;-122.338;2023-09-19T05:48:05;10.45;;;6.18;;
70010;SDS011;59543;37.950;-122.338;2023-09-19T05:50:41;12.73;;;6.85;;
70010;SDS011;59543;37.950;-122.338;2023-09-19T05:53:08;13.05;;;6.90;;
70010;SDS011;59543;37.950;-122.338;2023-09-19T05:55:37;8.68;;;6.00;;
70010;SDS011;59543;37.950;-122.338;2023-09-19T05:58:04;13.10;;;7.22;;
70010;SDS011;59543;37.950;-122.338;2023-09-19T06:00:30;11.65;;;7.07;;
70010;SDS011;59543;37.950;-122.338;2023-09-19T06:02:57;10.02;;;7.07;;
70010;SDS011;59543;37.950;-122.338;2023-09-19T06:05:25;11.05;;;6.45;;
70010;SDS011;59543;37.950;-122.338;2023-09-19T06:07:53;18.52;;;6.90;;
70010;SDS011;59543;37.950;-122.338;2023-09-19T06:10:20;12.73;;;6.55;;
70010;SDS011;59543;37.950;-122.338;2023-09-19T06:12:47;11.50;;;6.05;;
70010;SDS011;59543;37.950;-122.338;2023-09-19T06:15:14;15.60;;;6.80;;
70010;SDS011;59543;37.950;-122.338;2023-09-19T06:17:53;11.20;;;6.43;;
70010;SDS011;59543;37.950;-122.338;2023-09-19T06:20:21;9.18;;;6.13;;
70010;SDS011;59543;37.950;-122.338;2023-09-19T06:22:52;10.93;;;6.65;;
70010;SDS011;59543;37.950;-122.338;2023-09-19T06:25:19;13.90;;;7.25;;
70010;SDS011;59543;37.950;-122.338;2023-09-19T06:27:46;11.50;;;6.80;;
70010;SDS011;59543;37.950;-122.338;2023-09-19T06:30:12;10.48;;;6.72;;
70010;SDS011;59543;37.950;-122.338;2023-09-19T06:32:40;14.02;;;7.72;;
70010;SDS011;59543;37.950;-122.338;2023-09-19T06:35:12;16.48;;;7.45;;
70010;SDS011;59543;37.950;-122.338;2023-09-19T06:37:41;9.63;;;6.47;;
70010;SDS011;59543;37.950;-122.338;2023-09-19T06:40:12;12.90;;;6.70;;
70010;SDS011;59543;37.950;-122.338;2023-09-19T06:43:12;11.82;;;6.60;;
70010;SDS011;59543;37.950;-122.338;2023-09-19T06:45:32;16.58;;;7.60;;
70010;SDS011;59543;37.950;-122.338;2023-09-19T06:47:58;13.30;;;6.70;;
70010;SDS011;59543;37.950;-122.338;2023-09-19T06:50:25;16.17;;;6.80;;
70010;SDS011;59543;37.950;-122.338;2023-09-19T06:52:52;10.55;;;6.70;;
70010;SDS011;59543;37.950;-122.338;2023-09-19T06:55:20;16.40;;;6.85;;
70010;SDS011;59543;37.950;-122.338;2023-09-19T06:57:50;12.95;;;6.85;;
70010;SDS011;59543;37.950;-122.338;2023-09-19T07:00:17;12.38;;;6.65;;
70010;SDS011;59543;37.950;-122.338;2023-09-19T07:02:44;14.10;;;7.68;;
70010;SDS011;59543;37.950;-122.338;2023-09-19T07:05:11;16.77;;;7.00;;
70010;SDS011;59543;37.950;-122.338;2023-09-19T07:07:37;16.42;;;7.47;;
70010;SDS011;59543;37.950;-122.338;2023-09-19T07:10:05;12.88;;;6.93;;
70010;SDS011;59543;37.950;-122.338;2023-09-19T07:12:33;19.65;;;7.43;;
70010;SDS011;59543;37.950;-122.338;2023-09-19T07:14:59;16.30;;;7.45;;
70010;SDS011;59543;37.950;-122.338;2023-09-19T07:17:26;12.68;;;6.72;;
70010;SDS011;59543;37.950;-122.338;2023-09-19T07:19:53;12.00;;;6.60;;
70010;SDS011;59543;37.950;-122.338;2023-09-19T07:22:19;17.27;;;7.32;;
70010;SDS011;59543;37.950;-122.338;2023-09-19T07:24:45;15.43;;;7.55;;
70010;SDS011;59543;37.950;-122.338;2023-09-19T07:27:14;11.63;;;6.68;;
70010;SDS011;59543;37.950;-122.338;2023-09-19T07:29:40;12.98;;;7.45;;
70010;SDS011;59543;37.950;-122.338;2023-09-19T07:32:07;18.02;;;8.95;;
70010;SDS011;59543;37.950;-122.338;2023-09-19T07:34:35;20.95;;;9.40;;
70010;SDS011;59543;37.950;-122.338;2023-09-19T07:37:01;14.63;;;7.85;;
70010;SDS011;59543;37.950;-122.338;2023-09-19T07:39:28;19.75;;;7.78;;
70010;SDS011;59543;37.950;-122.338;2023-09-19T07:41:55;14.32;;;7.75;;
70010;SDS011;59543;37.950;-122.338;2023-09-19T07:44:21;16.48;;;8.30;;
70010;SDS011;59543;37.950;-122.338;2023-09-19T07:46:48;14.98;;;7.22;;
70010;SDS011;59543;37.950;-122.338;2023-09-19T07:49:16;12.38;;;7.35;;
70010;SDS011;59543;37.950;-122.338;2023-09-19T07:51:43;13.93;;;7.57;;
70010;SDS011;59543;37.950;-122.338;2023-09-19T07:54:12;13.75;;;7.55;;
70010;SDS011;59543;37.950;-122.338;2023-09-19T07:56:40;15.95;;;7.60;;
70010;SDS011;59543;37.950;-122.338;2023-09-19T07:59:06;15.45;;;7.78;;
70010;SDS011;59543;37.950;-122.338;2023-09-19T08:01:33;15.95;;;8.30;;
70010;SDS011;59543;37.950;-122.338;2023-09-19T08:04:00;16.42;;;7.80;;
70010;SDS011;59543;37.950;-122.338;2023-09-19T08:06:27;19.67;;;7.60;;
70010;SDS011;59543;37.950;-122.338;2023-09-19T08:08:55;12.23;;;6.72;;
70010;SDS011;59543;37.950;-122.338;2023-09-19T08:11:22;14.80;;;7.10;;
70010;SDS011;59543;37.950;-122.338;2023-09-19T08:13:49;14.68;;;7.05;;
70010;SDS011;59543;37.950;-122.338;2023-09-19T08:16:16;13.90;;;7.03;;
70010;SDS011;59543;37.950;-122.338;2023-09-19T08:18:47;12.30;;;7.00;;
70010;SDS011;59543;37.950;-122.338;2023-09-19T08:21:20;11.82;;;6.65;;
70010;SDS011;59543;37.950;-122.338;2023-09-19T08:23:49;11.35;;;6.82;;
70010;SDS011;59543;37.950;-122.338;2023-09-19T08:26:16;11.27;;;6.90;;
70010;SDS011;59543;37.950;-122.338;2023-09-19T08:28:42;10.90;;;6.45;;
70010;SDS011;59543;37.950;-122.338;2023-09-19T08:31:08;12.55;;;6.45;;
70010;SDS011;59543;37.950;-122.338;2023-09-19T08:33:36;13.85;;;6.53;;
70010;SDS011;59543;37.950;-122.338;2023-09-19T08:36:05;11.82;;;6.97;;
70010;SDS011;59543;37.950;-122.338;2023-09-19T08:38:34;12.95;;;7.15;;
70010;SDS011;59543;37.950;-122.338;2023-09-19T08:41:05;14.35;;;6.70;;
70010;SDS011;59543;37.950;-122.338;2023-09-19T08:43:33;19.55;;;8.38;;
70010;SDS011;59543;37.950;-122.338;2023-09-19T08:48:45;16.65;;;8.00;;
70010;SDS011;59543;37.950;-122.338;2023-09-19T08:51:23;13.43;;;7.75;;
70010;SDS011;59543;37.950;-122.338;2023-09-19T08:54:03;16.92;;;8.05;;
70010;SDS011;59543;37.950;-122.338;2023-09-19T08:56:39;12.65;;;7.15;;
70010;SDS011;59543;37.950;-122.338;2023-09-19T08:59:08;13.45;;;7.30;;
70010;SDS011;59543;37.950;-122.338;2023-09-19T09:01:36;15.10;;;8.52;;
70010;SDS011;59543;37.950;-122.338;2023-09-19T09:04:05;12.43;;;7.63;;
70010;SDS011;59543;37.950;-122.338;2023-09-19T09:06:34;12.60;;;7.53;;
70010;SDS011;59543;37.950;-122.338;2023-09-19T09:09:02;18.10;;;8.02;;
70010;SDS011;59543;37.950;-122.338;2023-09-19T09:11:29;14.40;;;8.75;;
70010;SDS011;59543;37.950;-122.338;2023-09-19T09:13:59;16.48;;;8.80;;
70010;SDS011;59543;37.950;-122.338;2023-09-19T09:16:29;19.52;;;9.07;;
70010;SDS011;59543;37.950;-122.338;2023-09-19T09:18:56;15.55;;;7.95;;
70010;SDS011;59543;37.950;-122.338;2023-09-19T09:21:23;21.15;;;8.65;;
70010;SDS011;59543;37.950;-122.338;2023-09-19T09:23:51;17.52;;;8.18;;
70010;SDS011;59543;37.950;-122.338;2023-09-19T09:29:03;16.42;;;7.95;;
70010;SDS011;59543;37.950;-122.338;2023-09-19T09:31:29;12.73;;;7.70;;
70010;SDS011;59543;37.950;-122.338;2023-09-19T09:33:55;17.17;;;8.15;;
70010;SDS011;59543;37.950;-122.338;2023-09-19T09:36:36;19.08;;;8.38;;
70010;SDS011;59543;37.950;-122.338;2023-09-19T09:39:04;12.70;;;7.35;;
70010;SDS011;59543;37.950;-122.338;2023-09-19T09:41:50;14.13;;;7.47;;
70010;SDS011;59543;37.950;-122.338;2023-09-19T09:44:17;14.68;;;7.03;;
70010;SDS011;59543;37.950;-122.338;2023-09-19T09:46:45;22.30;;;8.15;;
70010;SDS011;59543;37.950;-122.338;2023-09-19T09:49:15;12.20;;;7.63;;
70010;SDS011;59543;37.950;-122.338;2023-09-19T09:51:59;13.45;;;7.40;;
70010;SDS011;59543;37.950;-122.338;2023-09-19T09:55:03;15.90;;;7.70;;
70010;SDS011;59543;37.950;-122.338;2023-09-19T09:57:33;16.05;;;7.28;;
70010;SDS011;59543;37.950;-122.338;2023-09-19T10:00:00;12.63;;;7.15;;
70010;SDS011;59543;37.950;-122.338;2023-09-19T10:02:36;20.27;;;8.30;;
70010;SDS011;59543;37.950;-122.338;2023-09-19T10:05:11;11.60;;;6.93;;
70010;SDS011;59543;37.950;-122.338;2023-09-19T10:07:48;14.07;;;7.35;;
70010;SDS011;59543;37.950;-122.338;2023-09-19T10:10:38;13.55;;;7.38;;
70010;SDS011;59543;37.950;-122.338;2023-09-19T10:13:09;14.90;;;7.85;;
70010;SDS011;59543;37.950;-122.338;2023-09-19T10:15:56;14.98;;;7.45;;
70010;SDS011;59543;37.950;-122.338;2023-09-19T10:18:31;10.80;;;6.82;;
70010;SDS011;59543;37.950;-122.338;2023-09-19T10:21:01;12.82;;;7.47;;
70010;SDS011;59543;37.950;-122.338;2023-09-19T10:23:31;14.82;;;8.35;;
70010;SDS011;59543;37.950;-122.338;2023-09-19T10:25:59;10.85;;;6.80;;
70010;SDS011;59543;37.950;-122.338;2023-09-19T10:28:28;18.02;;;8.30;;
70010;SDS011;59543;37.950;-122.338;2023-09-19T10:30:56;14.43;;;7.93;;
70010;SDS011;59543;37.950;-122.338;2023-09-19T10:33:23;14.93;;;8.63;;
70010;SDS011;59543;37.950;-122.338;2023-09-19T10:35:56;15.57;;;7.72;;
70010;SDS011;59543;37.950;-122.338;2023-09-19T10:38:26;17.17;;;8.45;;
70010;SDS011;59543;37.950;-122.338;2023-09-19T10:40:54;16.58;;;7.95;;
70010;SDS011;59543;37.950;-122.338;2023-09-19T10:43:26;16.05;;;8.32;;
70010;SDS011;59543;37.950;-122.338;2023-09-19T10:45:57;15.10;;;8.40;;
70010;SDS011;59543;37.950;-122.338;2023-09-19T10:48:31;12.68;;;7.95;;
70010;SDS011;59543;37.950;-122.338;2023-09-19T10:51:08;16.00;;;8.95;;
70010;SDS011;59543;37.950;-122.338;2023-09-19T10:53:51;17.33;;;9.07;;
70010;SDS011;59543;37.950;-122.338;2023-09-19T10:56:33;16.10;;;8.68;;
70010;SDS011;59543;37.950;-122.338;2023-09-19T10:59:12;17.92;;;8.10;;
70010;SDS011;59543;37.950;-122.338;2023-09-19T11:01:49;15.40;;;8.52;;
70010;SDS011;59543;37.950;-122.338;2023-09-19T11:07:09;16.13;;;8.52;;
70010;SDS011;59543;37.950;-122.338;2023-09-19T11:09:43;14.93;;;8.80;;
70010;SDS011;59543;37.950;-122.338;2023-09-19T11:15:01;15.05;;;8.45;;
70010;SDS011;59543;37.950;-122.338;2023-09-19T11:17:34;13.50;;;8.43;;
70010;SDS011;59543;37.950;-122.338;2023-09-19T11:30:45;16.70;;;9.27;;
70010;SDS011;59543;37.950;-122.338;2023-09-19T11:36:09;17.15;;;9.02;;
70010;SDS011;59543;37.950;-122.338;2023-09-19T11:44:31;15.43;;;9.02;;
70010;SDS011;59543;37.950;-122.338;2023-09-19T11:49:18;18.02;;;10.18;;
70010;SDS011;59543;37.950;-122.338;2023-09-19T11:51:51;12.13;;;8.00;;
70010;SDS011;59543;37.950;-122.338;2023-09-19T11:54:18;19.08;;;10.07;;
70010;SDS011;59543;37.950;-122.338;2023-09-19T11:56:55;17.67;;;10.23;;
70010;SDS011;59543;37.950;-122.338;2023-09-19T11:59:23;19.15;;;9.10;;
70010;SDS011;59543;37.950;-122.338;2023-09-19T12:01:55;14.23;;;8.85;;
70010;SDS011;59543;37.950;-122.338;2023-09-19T12:04:35;13.00;;;8.98;;
70010;SDS011;59543;37.950;-122.338;2023-09-19T12:07:15;13.30;;;9.15;;
70010;SDS011;59543;37.950;-122.338;2023-09-19T12:09:42;12.70;;;9.05;;
70010;SDS011;59543;37.950;-122.338;2023-09-19T12:12:33;13.13;;;8.82;;
70010;SDS011;59543;37.950;-122.338;2023-09-19T12:14:59;13.63;;;9.18;;
70010;SDS011;59543;37.950;-122.338;2023-09-19T12:17:35;12.52;;;8.35;;
70010;SDS011;59543;37.950;-122.338;2023-09-19T12:20:10;12.48;;;8.15;;
70010;SDS011;59543;37.950;-122.338;2023-09-19T12:22:41;13.35;;;8.82;;
70010;SDS011;59543;37.950;-122.338;2023-09-19T12:25:11;15.57;;;9.80;;
70010;SDS011;59543;37.950;-122.338;2023-09-19T12:27:45;14.85;;;8.88;;
70010;SDS011;59543;37.950;-122.338;2023-09-19T12:30:12;16.73;;;8.40;;
70010;SDS011;59543;37.950;-122.338;2023-09-19T12:32:46;14.52;;;7.85;;
70010;SDS011;59543;37.950;-122.338;2023-09-19T12:35:31;13.07;;;8.85;;
70010;SDS011;59543;37.950;-122.338;2023-09-19T12:38:01;14.98;;;8.77;;
70010;SDS011;59543;37.950;-122.338;2023-09-19T12:40:31;13.77;;;8.70;;
70010;SDS011;59543;37.950;-122.338;2023-09-19T12:43:01;12.23;;;8.65;;
70010;SDS011;59543;37.950;-122.338;2023-09-19T12:45:30;15.60;;;9.38;;
70010;SDS011;59543;37.950;-122.338;2023-09-19T12:51:07;12.02;;;8.40;;
70010;SDS011;59543;37.950;-122.338;2023-09-19T12:53:42;16.27;;;9.32;;
70010;SDS011;59543;37.950;-122.338;2023-09-19T12:56:11;16.48;;;9.00;;
70010;SDS011;59543;37.950;-122.338;2023-09-19T12:58:54;13.98;;;9.27;;
70010;SDS011;59543;37.950;-122.338;2023-09-19T13:01:26;21.95;;;10.77;;
70010;SDS011;59543;37.950;-122.338;2023-09-19T13:06:45;20.15;;;10.35;;
70010;SDS011;59543;37.950;-122.338;2023-09-19T13:09:14;16.83;;;9.25;;
70010;SDS011;59543;37.950;-122.338;2023-09-19T13:11:42;13.93;;;8.95;;
70010;SDS011;59543;37.950;-122.338;2023-09-19T13:17:02;14.05;;;8.57;;
70010;SDS011;59543;37.950;-122.338;2023-09-19T13:19:38;24.92;;;10.82;;
70010;SDS011;59543;37.950;-122.338;2023-09-19T13:22:38;17.63;;;9.82;;
70010;SDS011;59543;37.950;-122.338;2023-09-19T13:25:07;19.15;;;10.93;;
70010;SDS011;59543;37.950;-122.338;2023-09-19T13:27:39;21.40;;;10.60;;
70010;SDS011;59543;37.950;-122.338;2023-09-19T13:30:06;20.50;;;10.75;;
70010;SDS011;59543;37.950;-122.338;2023-09-19T13:32:33;21.30;;;11.55;;
70010;SDS011;59543;37.950;-122.338;2023-09-19T13:34:59;18.52;;;10.90;;
70010;SDS011;59543;37.950;-122.338;2023-09-19T13:37:26;18.75;;;10.02;;
70010;SDS011;59543;37.950;-122.338;2023-09-19T13:39:52;20.70;;;10.88;;
70010;SDS011;59543;37.950;-122.338;2023-09-19T13:42:19;18.65;;;10.07;;
70010;SDS011;59543;37.950;-122.338;2023-09-19T13:44:47;17.08;;;9.60;;
70010;SDS011;59543;37.950;-122.338;2023-09-19T13:47:13;17.60;;;10.05;;
70010;SDS011;59543;37.950;-122.338;2023-09-19T13:49:40;21.65;;;9.88;;
70010;SDS011;59543;37.950;-122.338;2023-09-19T13:52:08;22.58;;;10.45;;
70010;SDS011;59543;37.950;-122.338;2023-09-19T13:54:34;20.50;;;10.55;;
70010;SDS011;59543;37.950;-122.338;2023-09-19T13:57:01;18.15;;;10.32;;
70010;SDS011;59543;37.950;-122.338;2023-09-19T13:59:27;12.75;;;8.55;;
70010;SDS011;59543;37.950;-122.338;2023-09-19T14:01:54;19.65;;;9.95;;
70010;SDS011;59543;37.950;-122.338;2023-09-19T14:04:20;18.77;;;10.55;;
70010;SDS011;59543;37.950;-122.338;2023-09-19T14:06:47;16.98;;;10.30;;
70010;SDS011;59543;37.950;-122.338;2023-09-19T14:09:13;17.33;;;9.98;;
70010;SDS011;59543;37.950;-122.338;2023-09-19T14:11:44;17.42;;;9.95;;
70010;SDS011;59543;37.950;-122.338;2023-09-19T14:14:12;15.10;;;9.23;;
70010;SDS011;59543;37.950;-122.338;2023-09-19T14:16:40;16.38;;;9.63;;
70010;SDS011;59543;37.950;-122.338;2023-09-19T14:19:07;14.88;;;8.73;;
70010;SDS011;59543;37.950;-122.338;2023-09-19T14:21:33;15.88;;;9.00;;
70010;SDS011;59543;37.950;-122.338;2023-09-19T14:24:02;16.52;;;8.90;;
70010;SDS011;59543;37.950;-122.338;2023-09-19T14:26:28;18.90;;;9.52;;
70010;SDS011;59543;37.950;-122.338;2023-09-19T14:28:55;16.45;;;8.82;;
70010;SDS011;59543;37.950;-122.338;2023-09-19T14:31:21;14.55;;;8.00;;
70010;SDS011;59543;37.950;-122.338;2023-09-19T14:33:53;18.63;;;8.98;;
70010;SDS011;59543;37.950;-122.338;2023-09-19T14:36:21;13.88;;;9.00;;
70010;SDS011;59543;37.950;-122.338;2023-09-19T14:38:47;15.30;;;8.65;;
70010;SDS011;59543;37.950;-122.338;2023-09-19T14:41:19;17.80;;;9.25;;
70010;SDS011;59543;37.950;-122.338;2023-09-19T14:43:45;18.23;;;9.10;;
70010;SDS011;59543;37.950;-122.338;2023-09-19T14:46:11;14.77;;;8.98;;
70010;SDS011;59543;37.950;-122.338;2023-09-19T14:48:38;18.83;;;9.52;;
70010;SDS011;59543;37.950;-122.338;2023-09-19T14:51:05;16.30;;;8.40;;
70010;SDS011;59543;37.950;-122.338;2023-09-19T14:53:34;17.90;;;9.75;;
70010;SDS011;59543;37.950;-122.338;2023-09-19T14:56:04;15.52;;;9.65;;
70010;SDS011;59543;37.950;-122.338;2023-09-19T14:58:33;16.63;;;9.40;;
70010;SDS011;59543;37.950;-122.338;2023-09-19T15:01:06;13.35;;;7.70;;
70010;SDS011;59543;37.950;-122.338;2023-09-19T15:03:36;16.63;;;8.73;;
70010;SDS011;59543;37.950;-122.338;2023-09-19T15:06:05;19.00;;;9.18;;
70010;SDS011;59543;37.950;-122.338;2023-09-19T15:08:34;16.83;;;8.65;;
70010;SDS011;59543;37.950;-122.338;2023-09-19T15:11:04;18.00;;;9.02;;
70010;SDS011;59543;37.950;-122.338;2023-09-19T15:13:31;19.08;;;8.70;;
70010;SDS011;59543;37.950;-122.338;2023-09-19T15:16:04;14.50;;;8.43;;
70010;SDS011;59543;37.950;-122.338;2023-09-19T15:18:38;14.70;;;8.73;;
70010;SDS011;59543;37.950;-122.338;2023-09-19T15:21:07;19.70;;;10.93;;